Time;durP1;ratioP1;P1;durP2;ratioP2;P2;SDS_P1;SDS_P2;PMS_P1;PMS_P2;Temp;Humidity;BMP_temperature;BMP_pressure;BME280_temperature;BME280_humidity;BME280_pressure;Samples;Min_cycle;Max_cycle;Signal;HPM_P1;HPM_P2
2021/08/03 00:01:23;;;;;;;;;1.75;1.75;;;;;29.65;55.49;98361.22;5054935;28;8846;-73
2021/08/03 00:03:59;;;;;;;;;2.00;2.00;;;;;29.71;54.33;98370.50;5055032;28;8847;-73
2021/08/03 00:06:31;;;;;;;;;1.50;1.50;;;;;29.72;54.26;98372.81;5054756;28;8853;-73
2021/08/03 00:09:01;;;;;;;;;2.00;2.00;;;;;29.75;54.20;98376.66;5054846;28;8838;-73
2021/08/03 00:11:30;;;;;;;;;1.00;1.00;;;;;29.75;53.75;98369.28;5054807;28;8838;-73
2021/08/03 00:14:03;;;;;;;;;1.00;1.00;;;;;29.79;54.35;98364.59;5054666;28;8831;-72
2021/08/03 00:16:40;;;;;;;;;2.00;2.00;;;;;29.83;54.19;98365.31;5054842;28;8854;-72
2021/08/03 00:19:09;;;;;;;;;2.75;2.75;;;;;29.86;54.14;98377.34;5054424;28;8842;-72
2021/08/03 00:21:38;;;;;;;;;2.25;2.25;;;;;29.89;54.04;98378.47;5054125;28;9637;-73
2021/08/03 00:24:06;;;;;;;;;1.00;1.00;;;;;29.90;53.97;98385.47;5054029;28;8854;-72
2021/08/03 00:26:38;;;;;;;;;2.80;2.80;;;;;29.75;54.14;98360.34;5054160;28;8846;-72
2021/08/03 00:29:07;;;;;;;;;3.00;3.00;;;;;29.95;54.33;98387.72;5053907;28;8943;-73
2021/08/03 00:31:35;;;;;;;;;3.00;3.00;;;;;29.99;53.47;98393.88;5054026;28;8957;-72
2021/08/03 00:34:04;;;;;;;;;2.00;2.00;;;;;30.02;54.29;98393.09;5053948;28;8847;-73
2021/08/03 00:36:32;;;;;;;;;2.00;2.00;;;;;30.06;54.03;98397.31;5053999;28;8846;-73
2021/08/03 00:39:01;;;;;;;;;3.75;3.75;;;;;30.11;54.04;98402.31;5053949;28;8827;-72
2021/08/03 00:41:37;;;;;;;;;4.00;4.00;;;;;30.12;53.97;98394.94;5053885;28;8834;-72
2021/08/03 00:44:06;;;;;;;;;2.00;2.00;;;;;30.16;54.25;98406.56;5053834;28;8977;-72
2021/08/03 00:46:36;;;;;;;;;3.75;3.75;;;;;30.21;54.07;98408.81;5053779;28;8830;-72
2021/08/03 00:49:04;;;;;;;;;4.00;4.00;;;;;30.18;53.02;98406.91;5053590;28;8859;-72
2021/08/03 00:51:47;;;;;;;;;2.40;2.40;;;;;30.24;53.75;98410.72;5053507;28;8885;-73
2021/08/03 00:54:15;;;;;;;;;2.50;2.50;;;;;30.26;53.66;98404.88;5053538;28;8847;-72
2021/08/03 00:56:45;;;;;;;;;4.25;4.25;;;;;30.28;53.61;98414.19;5053625;28;8866;-72
2021/08/03 00:59:14;;;;;;;;;3.00;3.00;;;;;30.29;53.40;98413.00;5052608;28;8976;-73
2021/08/03 01:01:43;;;;;;;;;1.00;1.00;;;;;30.27;53.76;98401.00;5051812;28;8858;-76
2021/08/03 01:04:14;;;;;;;;;2.00;2.00;;;;;30.37;53.50;98414.47;5053120;28;8839;-74
2021/08/03 01:07:03;;;;;;;;;1.75;1.75;;;;;30.42;53.48;98416.75;5053349;28;8850;-73
2021/08/03 01:10:03;;;;;;;;;1.75;1.75;;;;;30.45;53.53;98420.59;5053397;28;8830;-73
2021/08/03 01:12:57;;;;;;;;;2.00;2.00;;;;;30.48;53.38;98423.28;5052913;28;8865;-75
2021/08/03 01:15:47;;;;;;;;;1.40;1.40;;;;;30.52;53.69;98418.56;5053029;28;8851;-75
2021/08/03 01:18:41;;;;;;;;;2.00;2.00;;;;;30.60;53.44;98426.69;5052576;28;8928;-73
2021/08/03 01:21:28;;;;;;;;;1.60;1.60;;;;;30.67;52.93;98423.88;5052938;28;8858;-74
2021/08/03 01:24:32;;;;;;;;;1.60;1.60;;;;;30.74;53.11;98415.59;5051325;28;8839;-74
2021/08/03 01:27:33;;;;;;;;;0.80;0.80;;;;;30.79;53.01;98412.44;5051614;28;8846;-74
2021/08/03 01:30:02;;;;;;;;;0.80;0.80;;;;;30.75;52.46;98400.81;5045071;28;8873;-74
2021/08/03 01:32:34;;;;;;;;;2.60;2.60;;;;;30.86;52.74;98411.56;5049592;28;8835;-73
2021/08/03 01:35:05;;;;;;;;;1.20;1.20;;;;;30.89;52.54;98414.22;5049188;28;8871;-75
2021/08/03 01:37:35;;;;;;;;;1.00;1.00;;;;;30.90;52.47;98402.16;5052871;28;8866;-75
2021/08/03 01:40:10;;;;;;;;;2.40;2.40;;;;;30.99;52.33;98407.88;5060043;28;8858;-74
2021/08/03 01:42:42;;;;;;;;;2.20;2.20;;;;;31.01;52.41;98408.22;5061800;28;8862;-73
2021/08/03 01:45:13;;;;;;;;;0.80;0.80;;;;;31.04;52.67;98415.56;5051262;28;8900;-70
2021/08/03 01:47:41;;;;;;;;;1.20;1.20;;;;;30.98;52.17;98400.09;5050858;28;9599;-72
2021/08/03 01:50:12;;;;;;;;;1.80;1.80;;;;;31.02;52.42;98409.78;5050502;28;8916;-74
2021/08/03 01:52:42;;;;;;;;;1.80;1.80;;;;;31.01;52.48;98416.41;5052555;28;8938;-74
2021/08/03 01:55:11;;;;;;;;;0.00;0.00;;;;;31.00;52.27;98412.13;5052515;28;8907;-75
2021/08/03 01:57:43;;;;;;;;;1.80;0.40;;;;;31.00;52.67;98414.84;5051522;28;8838;-75
2021/08/03 02:00:12;;;;;;;;;0.80;0.80;;;;;31.01;52.62;98415.63;5051246;28;8823;-72
2021/08/03 02:02:42;;;;;;;;;2.20;2.20;;;;;31.01;52.13;98410.19;5051766;28;8858;-72
2021/08/03 02:05:12;;;;;;;;;0.60;0.60;;;;;31.00;52.42;98420.31;5051760;28;8862;-75
2021/08/03 02:07:42;;;;;;;;;2.00;2.00;;;;;31.02;52.54;98420.66;5050523;28;9595;-76
2021/08/03 02:10:11;;;;;;;;;2.00;2.00;;;;;30.97;52.80;98410.22;5049364;28;8834;-72
2021/08/03 02:12:41;;;;;;;;;1.20;1.20;;;;;31.02;52.41;98428.06;5049159;28;8842;-75
2021/08/03 02:15:11;;;;;;;;;2.00;2.00;;;;;31.08;52.76;98427.19;5050153;28;8843;-71
2021/08/03 02:17:40;;;;;;;;;1.00;1.00;;;;;31.10;52.55;98435.72;5053158;28;8972;-75
2021/08/03 02:20:09;;;;;;;;;1.60;1.60;;;;;31.10;52.38;98430.28;5050377;28;8851;-74
2021/08/03 02:22:37;;;;;;;;;2.60;2.60;;;;;31.13;52.27;98434.94;5049865;28;8838;-73
2021/08/03 02:25:10;;;;;;;;;1.60;1.60;;;;;31.14;52.39;98427.53;5049956;28;8851;-73
2021/08/03 02:27:39;;;;;;;;;3.20;3.20;;;;;31.19;52.32;98427.06;5049807;28;8908;-73
2021/08/03 02:30:10;;;;;;;;;2.00;2.00;;;;;31.20;52.32;98422.38;5050686;28;8843;-72
2021/08/03 02:33:04;;;;;;;;;1.40;1.40;;;;;31.25;52.29;98430.06;5051656;28;8854;-72
2021/08/03 02:35:39;;;;;;;;;2.60;2.60;;;;;31.26;51.64;98418.00;5051794;28;8850;-71
2021/08/03 02:38:15;;;;;;;;;2.00;2.00;;;;;31.41;52.22;98435.66;5051322;28;8843;-72
2021/08/03 02:40:45;;;;;;;;;3.00;3.00;;;;;31.44;52.08;98424.69;5051602;28;8893;-72
2021/08/03 02:43:16;;;;;;;;;2.00;1.00;;;;;31.51;52.28;98421.09;5051504;28;8862;-72
2021/08/03 02:45:45;;;;;;;;;2.00;2.00;;;;;31.54;52.12;98420.25;5051314;28;9054;-73
2021/08/03 02:48:15;;;;;;;;;1.00;1.00;;;;;31.53;52.13;98417.94;5051632;28;8865;-72
2021/08/03 02:50:45;;;;;;;;;2.40;2.40;;;;;31.60;51.95;98418.59;5051107;28;8855;-71
2021/08/03 02:53:30;;;;;;;;;1.00;1.00;;;;;31.68;51.86;98432.91;5051353;28;8877;-72
2021/08/03 02:56:13;;;;;;;;;1.00;1.00;;;;;31.74;51.85;98431.25;5051426;28;9580;-72
2021/08/03 02:58:49;;;;;;;;;2.00;2.00;;;;;31.81;51.58;98427.66;5051414;28;8854;-72
2021/08/03 03:01:21;;;;;;;;;1.00;1.00;;;;;31.91;51.46;98430.19;5051203;28;8863;-71
2021/08/03 03:03:59;;;;;;;;;1.00;1.00;;;;;31.99;51.41;98433.56;5051475;28;8986;-72
2021/08/03 03:06:33;;;;;;;;;1.20;1.20;;;;;31.98;51.26;98418.38;5051741;28;8850;-73
2021/08/03 03:09:03;;;;;;;;;0.00;0.00;;;;;32.04;51.31;98419.44;5051188;28;8842;-70
2021/08/03 03:11:33;;;;;;;;;2.00;2.00;;;;;32.03;51.16;98420.63;5051511;28;8835;-71
2021/08/03 03:14:03;;;;;;;;;2.00;2.00;;;;;32.04;50.79;98417.47;5051466;28;8839;-71
2021/08/03 03:16:37;;;;;;;;;2.40;2.40;;;;;32.06;50.75;98417.06;5051062;28;8838;-71
2021/08/03 03:19:07;;;;;;;;;1.80;1.80;;;;;32.08;51.53;98417.41;5051169;28;8865;-71
2021/08/03 03:21:37;;;;;;;;;1.00;1.00;;;;;32.14;51.03;98417.69;5051461;28;8831;-73
2021/08/03 03:24:06;;;;;;;;;1.00;1.00;;;;;32.09;51.01;98408.03;5050984;28;8850;-73
2021/08/03 03:26:40;;;;;;;;;2.00;2.00;;;;;32.24;50.77;98430.41;5051146;28;8815;-73
2021/08/03 03:29:10;;;;;;;;;1.60;1.60;;;;;32.29;50.26;98427.19;5053564;28;8826;-73
2021/08/03 03:31:41;;;;;;;;;2.00;2.00;;;;;32.24;50.22;98417.53;5055132;28;8839;-73
2021/08/03 03:34:11;;;;;;;;;0.20;0.20;;;;;32.39;50.90;98423.47;5055038;28;8860;-73
2021/08/03 03:36:43;;;;;;;;;0.80;0.80;;;;;32.39;50.36;98429.69;5054872;28;8843;-73
2021/08/03 03:39:14;;;;;;;;;1.00;1.00;;;;;32.28;50.20;98410.03;5055231;28;8900;-72
2021/08/03 03:41:46;;;;;;;;;2.00;2.00;;;;;32.21;50.42;98391.03;5055348;28;8920;-74
2021/08/03 03:44:16;;;;;;;;;1.00;1.00;;;;;32.43;50.48;98427.66;5054645;28;8965;-76
2021/08/03 03:46:52;;;;;;;;;0.80;0.80;;;;;32.48;49.74;98420.94;5054090;28;8870;-77
2021/08/03 03:49:25;;;;;;;;;1.00;1.00;;;;;32.54;49.81;98427.44;5053745;28;9604;-75
2021/08/03 03:51:59;;;;;;;;;0.60;0.60;;;;;32.69;49.44;98430.63;5054650;28;8865;-75
2021/08/03 03:54:30;;;;;;;;;1.40;1.40;;;;;32.78;49.06;98430.09;5053206;28;8908;-76
2021/08/03 03:57:05;;;;;;;;;0.80;0.80;;;;;32.81;49.30;98421.03;5054606;28;8869;-72
2021/08/03 03:59:38;;;;;;;;;0.80;0.80;;;;;32.94;49.51;98419.97;5053763;28;8908;-74
2021/08/03 04:02:09;;;;;;;;;1.00;1.00;;;;;32.99;49.09;98411.25;5053634;28;8858;-71
2021/08/03 04:04:40;;;;;;;;;0.20;0.20;;;;;33.00;49.18;98417.50;5053769;28;8858;-72
2021/08/03 04:07:09;;;;;;;;;0.80;0.80;;;;;33.06;49.07;98415.81;5051838;28;8858;-72
2021/08/03 04:09:38;;;;;;;;;1.00;1.00;;;;;33.10;48.56;98419.22;5052164;28;8846;-72
2021/08/03 04:12:07;;;;;;;;;0.00;0.00;;;;;33.14;48.98;98417.19;5054029;28;8827;-72
2021/08/03 04:14:38;;;;;;;;;1.00;1.00;;;;;33.19;48.92;98407.69;5053821;28;8896;-72
2021/08/03 04:17:09;;;;;;;;;0.00;0.00;;;;;33.24;48.77;98413.44;5053554;28;8885;-72
2021/08/03 04:19:37;;;;;;;;;1.00;1.00;;;;;33.29;48.86;98403.97;5053625;28;8850;-72
2021/08/03 04:22:06;;;;;;;;;0.00;0.00;;;;;33.34;49.24;98404.22;5053251;28;8850;-72
2021/08/03 04:24:34;;;;;;;;;0.00;0.00;;;;;33.42;48.56;98402.09;5069495;28;8854;-73
2021/08/03 04:27:03;;;;;;;;;1.20;1.20;;;;;33.36;48.90;98382.69;5053657;28;8870;-72
2021/08/03 04:29:32;;;;;;;;;1.40;1.40;;;;;33.55;48.64;98400.22;5053457;28;8854;-72
2021/08/03 04:32:01;;;;;;;;;1.00;1.00;;;;;33.62;48.81;98396.53;5053641;28;8831;-72
2021/08/03 04:34:31;;;;;;;;;0.00;0.00;;;;;33.62;48.60;98386.34;5054154;28;8854;-73
2021/08/03 04:37:01;;;;;;;;;0.00;0.00;;;;;33.77;48.18;98397.69;5052607;28;8891;-72
2021/08/03 04:39:29;;;;;;;;;0.00;0.00;;;;;33.83;48.31;98395.22;5053359;28;8907;-71
2021/08/03 04:41:58;;;;;;;;;1.00;1.00;;;;;33.86;48.54;98402.56;5053963;28;8847;-72
2021/08/03 04:44:27;;;;;;;;;1.00;1.00;;;;;33.86;47.87;98402.56;5053837;28;8835;-71
2021/08/03 04:46:55;;;;;;;;;1.00;1.00;;;;;33.90;47.89;98405.97;5053847;28;8862;-72
2021/08/03 04:49:23;;;;;;;;;1.00;1.00;;;;;33.90;47.96;98400.50;5056840;28;8863;-72
2021/08/03 04:51:52;;;;;;;;;1.00;1.00;;;;;34.00;47.71;98393.97;5056053;28;8839;-71
2021/08/03 04:54:21;;;;;;;;;1.00;1.00;;;;;34.07;47.80;98399.25;5056351;28;8923;-71
2021/08/03 04:56:49;;;;;;;;;0.20;0.20;;;;;33.85;47.46;98352.53;5056511;28;9600;-71
2021/08/03 04:59:19;;;;;;;;;0.00;0.00;;;;;34.18;47.31;98402.47;5056310;28;8846;-72
2021/08/03 05:01:48;;;;;;;;;1.00;1.00;;;;;34.27;47.62;98393.63;5054523;28;8850;-71
2021/08/03 05:04:16;;;;;;;;;0.00;0.00;;;;;34.33;46.97;98383.69;5054242;28;8854;-71
2021/08/03 05:06:45;;;;;;;;;0.60;0.60;;;;;34.28;47.42;98376.75;5053690;28;8989;-72
2021/08/03 05:09:13;;;;;;;;;0.40;0.40;;;;;34.38;47.15;98382.38;5053580;28;8896;-72
2021/08/03 05:11:42;;;;;;;;;0.60;0.60;;;;;34.42;47.04;98383.06;5053576;28;8859;-71
2021/08/03 05:14:11;;;;;;;;;1.00;1.00;;;;;34.44;47.23;98377.91;5053679;28;8835;-72
2021/08/03 05:16:39;;;;;;;;;1.40;1.40;;;;;34.35;46.40;98362.13;5053514;28;8847;-72
2021/08/03 05:19:08;;;;;;;;;0.40;0.40;;;;;34.41;47.06;98370.56;5053423;28;8850;-71
2021/08/03 05:21:36;;;;;;;;;1.20;1.20;;;;;34.34;46.52;98347.66;5053359;28;8858;-72
2021/08/03 05:24:05;;;;;;;;;1.00;1.00;;;;;34.38;47.39;98355.78;5068458;28;8859;-72
2021/08/03 05:26:34;;;;;;;;;1.80;1.80;;;;;34.42;47.18;98355.66;5053276;28;9595;-71
2021/08/03 05:29:02;;;;;;;;;1.40;1.40;;;;;34.44;46.85;98356.78;5053093;28;9579;-72
2021/08/03 05:31:33;;;;;;;;;1.00;1.00;;;;;34.46;47.00;98354.34;5053193;28;8835;-71
2021/08/03 05:34:03;;;;;;;;;1.00;1.00;;;;;34.44;46.92;98343.06;5053179;28;8862;-71
2021/08/03 05:36:31;;;;;;;;;0.80;0.80;;;;;34.46;46.64;98343.41;5053082;28;8850;-71
2021/08/03 05:39:00;;;;;;;;;0.40;0.40;;;;;34.49;46.96;98344.50;5052996;28;8823;-71
2021/08/03 05:41:28;;;;;;;;;0.60;0.60;;;;;34.50;46.95;98348.78;5053077;28;8871;-72
2021/08/03 05:43:57;;;;;;;;;0.80;0.80;;;;;34.48;46.73;98343.75;5052910;28;8881;-72
2021/08/03 05:46:25;;;;;;;;;1.00;1.00;;;;;34.51;46.72;98342.88;5052733;28;8851;-71
2021/08/03 05:48:54;;;;;;;;;1.20;1.20;;;;;34.46;47.06;98337.16;5051577;28;8830;-72
2021/08/03 05:51:23;;;;;;;;;0.40;0.40;;;;;34.53;47.19;98345.16;5052870;28;9618;-72
2021/08/03 05:53:51;;;;;;;;;1.00;1.00;;;;;34.57;47.17;98351.31;5052621;28;9622;-72
2021/08/03 05:56:19;;;;;;;;;0.00;0.00;;;;;34.64;46.93;98349.13;5052670;28;8834;-71
2021/08/03 05:58:52;;;;;;;;;1.00;1.00;;;;;34.66;46.61;98335.75;5051262;28;8933;-72
2021/08/03 06:01:21;;;;;;;;;0.00;0.00;;;;;34.81;46.57;98343.56;5052557;28;8839;-71
2021/08/03 06:03:50;;;;;;;;;0.20;0.20;;;;;34.76;48.04;98330.38;5052740;28;8831;-72
2021/08/03 06:06:21;;;;;;;;;1.00;1.00;;;;;34.90;46.27;98349.16;5052560;28;8847;-72
2021/08/03 06:08:50;;;;;;;;;0.00;0.00;;;;;34.90;46.42;98347.16;5052241;28;8846;-72
2021/08/03 06:11:24;;;;;;;;;1.00;1.00;;;;;34.94;46.83;98336.09;5052334;28;8839;-72
2021/08/03 06:13:57;;;;;;;;;1.00;1.00;;;;;34.96;46.91;98323.50;5052386;28;8854;-74
2021/08/03 06:16:27;;;;;;;;;1.00;1.00;;;;;35.00;45.97;98323.38;5052360;28;8955;-71
2021/08/03 06:19:02;;;;;;;;;1.00;1.00;;;;;35.05;46.26;98325.56;5052191;28;8862;-72
2021/08/03 06:21:31;;;;;;;;;0.80;0.80;;;;;34.98;46.28;98307.38;5051997;28;8858;-71
2021/08/03 06:24:00;;;;;;;;;1.00;1.00;;;;;35.10;45.88;98319.53;5052253;28;8927;-71
2021/08/03 06:26:29;;;;;;;;;0.00;0.00;;;;;34.97;46.18;98291.38;5052170;28;8937;-72
2021/08/03 06:28:58;;;;;;;;;0.80;0.80;;;;;35.12;45.75;98314.34;5052172;28;8846;-71
2021/08/03 06:31:27;;;;;;;;;1.00;1.00;;;;;35.09;45.89;98301.53;5051597;28;8917;-71
2021/08/03 06:33:56;;;;;;;;;0.00;0.00;;;;;35.07;45.84;98293.00;5052137;28;8977;-71
2021/08/03 06:36:25;;;;;;;;;0.00;0.00;;;;;35.08;45.91;98297.25;5052185;28;9665;-76
2021/08/03 06:38:54;;;;;;;;;1.20;1.20;;;;;35.02;47.64;98298.25;5052475;28;8850;-73
2021/08/03 06:41:30;;;;;;;;;1.00;1.00;;;;;34.99;46.60;98297.16;5051566;28;8854;-71
2021/08/03 06:44:20;;;;;;;;;0.40;0.40;;;;;34.91;46.97;98290.38;5051970;28;8944;-72
2021/08/03 06:46:55;;;;;;;;;1.00;1.00;;;;;34.84;46.89;98288.63;5051985;28;8838;-71
2021/08/03 06:49:24;;;;;;;;;1.00;1.00;;;;;34.83;46.70;98275.38;5051696;28;8846;-69
2021/08/03 06:51:56;;;;;;;;;0.80;0.80;;;;;34.92;46.37;98281.72;5051491;28;8847;-71
2021/08/03 06:54:28;;;;;;;;;0.00;0.00;;;;;34.98;45.80;98277.22;5050863;28;9571;-70
2021/08/03 06:57:08;;;;;;;;;1.00;1.00;;;;;34.94;45.64;98251.13;5051366;28;8850;-70
2021/08/03 06:59:48;;;;;;;;;0.00;0.00;;;;;35.11;46.10;98262.69;5051706;28;8850;-70
2021/08/03 07:02:28;;;;;;;;;1.00;1.00;;;;;35.14;45.40;98259.06;5054743;28;8834;-70
2021/08/03 07:05:06;;;;;;;;;0.80;0.80;;;;;35.25;45.75;98257.47;5055873;28;8855;-71
2021/08/03 07:07:36;;;;;;;;;0.00;0.00;;;;;35.36;45.77;98243.44;5055957;28;8924;-71
2021/08/03 07:10:07;;;;;;;;;0.80;0.80;;;;;35.54;45.68;98229.84;5055484;28;8866;-71
2021/08/03 07:12:35;;;;;;;;;1.00;1.00;;;;;35.58;45.57;98207.78;5055711;28;8956;-71
2021/08/03 07:15:05;;;;;;;;;1.60;1.60;;;;;35.78;45.18;98227.41;5055563;28;8911;-71
2021/08/03 07:17:37;;;;;;;;;1.00;1.00;;;;;35.84;45.34;98227.63;5055742;28;8846;-71
2021/08/03 07:20:07;;;;;;;;;0.00;0.00;;;;;35.89;45.74;98225.06;5053651;28;8956;-71
2021/08/03 07:22:38;;;;;;;;;0.80;0.80;;;;;35.87;45.22;98226.72;5055900;28;8948;-71
2021/08/03 07:25:09;;;;;;;;;1.00;1.00;;;;;35.83;45.11;98223.34;5055480;28;8839;-71
2021/08/03 07:27:38;;;;;;;;;1.20;1.20;;;;;35.82;45.29;98224.56;5055834;28;8911;-73
2021/08/03 07:30:09;;;;;;;;;1.60;1.60;;;;;35.81;45.26;98218.31;5055335;28;8859;-69
2021/08/03 07:32:42;;;;;;;;;1.00;1.00;;;;;35.83;44.80;98215.13;5055452;28;8850;-71
2021/08/03 07:35:11;;;;;;;;;3.80;3.80;;;;;35.95;45.77;98206.03;5055358;28;8843;-71
2021/08/03 07:37:40;;;;;;;;;1.80;1.80;;;;;36.03;44.54;98201.81;5054439;28;8838;-71
2021/08/03 07:40:09;;;;;;;;;2.00;2.00;;;;;36.06;44.76;98211.88;5055362;28;8916;-71
2021/08/03 07:42:37;;;;;;;;;1.40;1.40;;;;;36.14;44.65;98199.41;5055298;28;8826;-71
2021/08/03 07:45:07;;;;;;;;;1.00;1.00;;;;;36.19;44.95;98198.06;5056326;28;8875;-71
2021/08/03 07:47:37;;;;;;;;;0.20;0.20;;;;;36.23;46.08;98195.94;5055604;28;8889;-71
2021/08/03 07:50:05;;;;;;;;;1.00;1.00;;;;;36.17;44.13;98171.03;5055068;28;8847;-72
2021/08/03 07:52:34;;;;;;;;;1.40;1.40;;;;;36.21;44.00;98179.91;5055418;28;8920;-72
2021/08/03 07:55:04;;;;;;;;;1.00;1.00;;;;;36.20;44.43;98166.63;5056844;28;9592;-71
2021/08/03 07:57:32;;;;;;;;;1.60;1.60;;;;;36.24;45.52;98172.75;5056540;28;8853;-71
2021/08/03 08:00:01;;;;;;;;;1.40;1.40;;;;;36.18;44.50;98167.09;5056759;28;8834;-71
2021/08/03 08:02:29;;;;;;;;;1.80;1.80;;;;;36.09;44.10;98150.56;5057110;28;8838;-71
2021/08/03 08:04:58;;;;;;;;;0.60;0.60;;;;;35.98;44.49;98128.28;5055648;28;8846;-71
2021/08/03 08:07:27;;;;;;;;;1.00;1.00;;;;;36.21;44.37;98152.44;5054862;28;8862;-71
2021/08/03 08:09:56;;;;;;;;;1.00;1.00;;;;;36.20;45.31;98153.66;5055030;28;8889;-71
2021/08/03 08:12:24;;;;;;;;;0.20;0.20;;;;;36.15;45.34;98145.25;5053783;28;8928;-71
2021/08/03 08:14:54;;;;;;;;;0.00;0.00;;;;;36.11;43.80;98137.16;5054715;28;8842;-71
2021/08/03 08:17:22;;;;;;;;;0.40;0.40;;;;;36.14;44.30;98143.72;5055145;28;8854;-71
2021/08/03 08:19:50;;;;;;;;;1.20;1.20;;;;;36.19;43.94;98146.66;5054878;28;8968;-71
2021/08/03 08:22:19;;;;;;;;;1.60;1.60;;;;;36.15;44.05;98121.31;5054492;28;8831;-71
2021/08/03 08:24:49;;;;;;;;;2.00;2.00;;;;;36.32;43.33;98134.81;5054470;28;8842;-70
2021/08/03 08:27:17;;;;;;;;;1.40;1.40;;;;;36.45;44.21;98144.41;5053603;28;8843;-71
2021/08/03 08:29:45;;;;;;;;;2.00;2.00;;;;;36.46;43.39;98134.19;5054327;28;8842;-71
2021/08/03 08:32:15;;;;;;;;;2.00;2.00;;;;;36.44;43.25;98131.91;5054342;28;8932;-71
2021/08/03 08:34:43;;;;;;;;;2.00;2.00;;;;;36.41;43.29;98121.81;5054125;28;8843;-70
2021/08/03 08:37:12;;;;;;;;;1.00;1.00;;;;;36.34;43.80;98107.66;5054138;28;8855;-71
2021/08/03 08:39:41;;;;;;;;;1.60;1.60;;;;;36.41;43.85;98121.06;5054243;28;8920;-72
2021/08/03 08:42:10;;;;;;;;;1.00;1.00;;;;;36.30;43.56;98109.78;5052954;28;8842;-71
2021/08/03 08:44:39;;;;;;;;;1.00;1.00;;;;;36.45;44.06;98121.69;5068217;28;8839;-71
2021/08/03 08:47:09;;;;;;;;;0.60;0.60;;;;;36.47;44.95;98119.25;5069198;28;9587;-71
2021/08/03 08:49:39;;;;;;;;;1.00;1.00;;;;;36.47;43.93;98119.25;5053403;28;9488;-70
2021/08/03 08:52:08;;;;;;;;;0.60;0.60;;;;;36.53;43.91;98125.66;5052579;28;8908;-74
2021/08/03 08:54:36;;;;;;;;;1.00;1.00;;;;;36.59;43.25;98121.84;5053132;28;8874;-72
2021/08/03 08:57:05;;;;;;;;;1.00;1.00;;;;;36.68;43.99;98112.09;5053911;28;8826;-72
2021/08/03 08:59:35;;;;;;;;;1.80;1.80;;;;;36.74;44.35;98121.25;5053820;28;8842;-73
2021/08/03 09:02:04;;;;;;;;;1.60;1.60;;;;;36.69;43.31;98111.63;5053795;28;9568;-74
2021/08/03 09:04:33;;;;;;;;;2.00;2.00;;;;;36.69;43.96;98113.59;5053116;28;8845;-73
2021/08/03 09:07:07;;;;;;;;;1.40;1.40;;;;;36.71;42.59;98111.16;5053477;28;8861;-74
2021/08/03 09:09:41;;;;;;;;;0.80;0.80;;;;;36.69;43.19;98114.38;5052846;28;8858;-72
2021/08/03 09:12:12;;;;;;;;;1.00;1.00;;;;;36.62;43.11;98106.44;5053598;28;8904;-72
2021/08/03 09:14:42;;;;;;;;;0.80;0.80;;;;;36.57;43.26;98113.28;5053646;28;9583;-72
2021/08/03 09:17:24;;;;;;;;;1.00;1.00;;;;;36.50;43.66;98107.34;5053511;28;8953;-72
2021/08/03 09:19:53;;;;;;;;;1.00;1.00;;;;;36.39;43.46;98094.06;5053751;28;8835;-72
2021/08/03 09:22:30;;;;;;;;;2.80;2.80;;;;;36.50;43.75;98094.38;5053437;28;8842;-72
2021/08/03 09:25:17;;;;;;;;;2.00;2.00;;;;;36.61;43.98;98113.16;5053496;28;8912;-72
2021/08/03 09:27:48;;;;;;;;;1.00;1.00;;;;;36.58;43.82;98111.31;5053317;28;8847;-72
2021/08/03 09:30:34;;;;;;;;;1.00;1.00;;;;;36.58;43.67;98117.56;5053196;28;8834;-72
2021/08/03 09:33:04;;;;;;;;;2.40;2.40;;;;;36.50;44.02;98113.59;5053170;28;8838;-72
2021/08/03 09:35:34;;;;;;;;;0.80;0.80;;;;;36.48;43.82;98118.78;5053068;28;9600;-72
2021/08/03 09:38:15;;;;;;;;;0.80;0.80;;;;;36.45;43.90;98110.69;5053084;28;8835;-72
2021/08/03 09:40:43;;;;;;;;;2.00;2.00;;;;;36.34;43.73;98096.66;5053291;28;8927;-72
2021/08/03 09:43:14;;;;;;;;;3.00;3.00;;;;;36.32;44.19;98099.09;5053268;28;8842;-72
2021/08/03 09:45:59;;;;;;;;;1.00;1.00;;;;;36.36;43.98;98116.19;5052958;28;8843;-72
2021/08/03 09:48:32;;;;;;;;;0.40;0.40;;;;;36.31;44.45;98122.28;5052904;28;8858;-72
2021/08/03 09:51:11;;;;;;;;;1.00;1.00;;;;;36.23;44.41;98116.28;5052623;28;8835;-72
2021/08/03 09:53:43;;;;;;;;;1.00;1.00;;;;;36.22;44.79;98123.78;5052810;28;8933;-72
2021/08/03 09:56:37;;;;;;;;;1.40;1.40;;;;;36.10;44.58;98113.66;5052726;28;8870;-72
2021/08/03 09:59:07;;;;;;;;;1.00;1.00;;;;;36.00;44.68;98108.59;5052684;28;9600;-72
2021/08/03 10:01:40;;;;;;;;;0.80;0.80;;;;;35.94;44.88;98106.44;5052609;28;8838;-72
2021/08/03 10:04:13;;;;;;;;;0.40;0.40;;;;;36.00;44.58;98127.81;5053313;28;8855;-72
2021/08/03 10:06:42;;;;;;;;;1.40;1.40;;;;;35.82;45.58;98101.84;5051356;28;8826;-72
2021/08/03 10:09:14;;;;;;;;;1.80;1.80;;;;;35.85;46.05;98130.34;5052500;28;8928;-74
2021/08/03 10:11:44;;;;;;;;;1.20;1.20;;;;;35.57;45.13;98096.50;5052437;28;8861;-72
2021/08/03 10:14:25;;;;;;;;;0.80;0.80;;;;;35.69;45.46;98125.06;5052500;28;8839;-72
2021/08/03 10:16:55;;;;;;;;;0.80;0.80;;;;;35.67;45.14;98122.78;5052717;28;8962;-72
2021/08/03 10:19:28;;;;;;;;;1.80;1.80;;;;;35.69;45.36;98125.84;5052427;28;8846;-72
2021/08/03 10:22:40;;;;;;;;;1.00;1.00;;;;;35.71;45.82;98136.34;5052305;28;8831;-72
2021/08/03 10:25:17;;;;;;;;;1.60;1.60;;;;;35.69;45.37;98133.31;5052522;28;8851;-72
2021/08/03 10:27:52;;;;;;;;;1.80;1.80;;;;;35.64;46.00;98143.66;5052312;28;8923;-72
2021/08/03 10:30:34;;;;;;;;;1.20;1.20;;;;;35.59;45.41;98155.19;5052113;28;8831;-72
2021/08/03 10:33:13;;;;;;;;;2.00;2.00;;;;;35.51;45.81;98155.91;5052209;28;8859;-72
2021/08/03 10:35:49;;;;;;;;;2.00;2.00;;;;;35.43;46.18;98149.94;5051683;28;8854;-72
2021/08/03 10:38:19;;;;;;;;;1.60;1.60;;;;;35.46;46.07;98159.25;5052105;28;8878;-72
2021/08/03 10:40:48;;;;;;;;;1.80;1.80;;;;;35.45;45.64;98166.69;5052390;28;8862;-72
2021/08/03 10:43:23;;;;;;;;;1.00;1.00;;;;;35.35;45.60;98158.88;5052016;28;8878;-72
2021/08/03 10:46:26;;;;;;;;;2.00;0.40;;;;;35.39;45.92;98171.22;5051956;28;8862;-72
2021/08/03 10:48:55;;;;;;;;;2.20;2.20;;;;;35.24;45.91;98161.97;5051773;28;9572;-72
2021/08/03 10:51:25;;;;;;;;;1.00;1.00;;;;;35.23;45.80;98172.16;5051852;28;8850;-72
2021/08/03 10:54:01;;;;;;;;;1.60;1.60;;;;;35.17;45.64;98175.91;5051897;28;8842;-72
2021/08/03 10:56:52;;;;;;;;;1.00;1.00;;;;;35.13;45.80;98173.31;5051916;28;8850;-72
2021/08/03 10:59:33;;;;;;;;;0.00;0.00;;;;;35.10;46.57;98173.47;5051853;28;8843;-72
2021/08/03 11:02:08;;;;;;;;;1.40;1.40;;;;;35.03;46.39;98188.19;5051794;28;8846;-72
2021/08/03 11:04:58;;;;;;;;;1.80;1.80;;;;;34.94;46.08;98194.34;5051897;28;8846;-72
2021/08/03 11:07:36;;;;;;;;;0.20;0.20;;;;;34.66;46.71;98170.59;5051898;28;9591;-72
2021/08/03 11:10:33;;;;;;;;;0.40;0.40;;;;;34.71;47.06;98191.19;5051895;28;8850;-72
2021/08/03 11:13:03;;;;;;;;;2.00;2.00;;;;;34.61;46.79;98195.81;5055238;28;8877;-72
2021/08/03 11:15:34;;;;;;;;;0.40;0.40;;;;;34.49;47.25;98202.84;5054119;28;8838;-72
2021/08/03 11:18:12;;;;;;;;;2.00;2.00;;;;;34.38;47.14;98204.41;5054896;28;8854;-72
2021/08/03 11:20:45;;;;;;;;;0.80;0.80;;;;;34.24;47.62;98216.53;5053755;28;9649;-72
2021/08/03 11:23:16;;;;;;;;;1.00;1.00;;;;;34.12;47.79;98228.25;5051769;28;8854;-72
2021/08/03 11:25:46;;;;;;;;;1.00;1.00;;;;;33.93;47.71;98211.59;5051718;28;8912;-72
2021/08/03 11:28:19;;;;;;;;;1.00;1.00;;;;;33.92;47.90;98225.69;5051670;28;8854;-72
2021/08/03 11:30:49;;;;;;;;;0.80;0.80;;;;;33.79;48.17;98220.19;5051825;28;8863;-72
2021/08/03 11:33:20;;;;;;;;;0.40;0.40;;;;;33.75;48.23;98232.44;5051575;28;8928;-71
2021/08/03 11:35:49;;;;;;;;;0.80;0.80;;;;;33.69;48.78;98243.94;5051534;28;8862;-72
2021/08/03 11:38:20;;;;;;;;;0.40;0.40;;;;;33.68;48.59;98249.81;5051556;28;8862;-74
2021/08/03 11:40:48;;;;;;;;;0.00;0.00;;;;;33.57;48.67;98236.44;5051500;28;8865;-74
2021/08/03 11:43:17;;;;;;;;;0.60;0.60;;;;;33.59;48.75;98245.00;5051484;28;8847;-74
2021/08/03 11:45:46;;;;;;;;;0.60;0.60;;;;;33.50;48.83;98239.38;5051459;28;8915;-74
2021/08/03 11:48:24;;;;;;;;;1.00;1.00;;;;;33.42;49.11;98232.56;5053798;28;8850;-74
2021/08/03 11:50:53;;;;;;;;;0.00;0.00;;;;;33.42;49.05;98240.00;5054986;28;8936;-74
2021/08/03 11:53:23;;;;;;;;;0.80;0.80;;;;;33.34;49.09;98234.72;5055450;28;8842;-74
2021/08/03 11:55:54;;;;;;;;;0.00;0.00;;;;;33.28;49.33;98233.72;5055153;28;8872;-74
2021/08/03 11:58:26;;;;;;;;;0.00;0.00;;;;;33.22;49.00;98238.16;5055285;28;8972;-74
2021/08/03 12:00:56;;;;;;;;;1.00;1.00;;;;;32.99;49.37;98203.59;5055020;28;8831;-74
2021/08/03 12:03:33;;;;;;;;;0.60;0.60;;;;;33.08;49.58;98233.81;5054923;28;8877;-74
2021/08/03 12:06:04;;;;;;;;;1.00;1.00;;;;;33.03;49.40;98249.97;5054877;28;8851;-74